Fethiye, Turkey
Current Conditions -  °F | °C
As of 4:50 PM on Tuesday 21 Oct 2014 (Local Time) from LTBS Reporting Station
Few Clouds Few Clouds  
Wind Chill: 75°   Ceiling: Unl
Heat Index: 75°   Visibility: 6mi
Dew Point: 57°   Wind: 10mph
Humidity: 53%   Direction: 190°S
Pressure: 29.94"   Gusts: NA
Location:  36.62°N, 29.11°E
Report Text: LTBS 211350Z 19009KT 9999 FEW030 24/14 Q1014 NOSIG
Loading
Personal Weather Stations






























Interactive Weather Map
Tropical Storm Tracking
New forecast layout! Learn more

10-Day Weather Forecast

Advertisements
Track Severe Weather on mobile